»·PEaware :: GSA572 KAMA-KDEN

GSA572 :: KAMA-KDEN

FLIGHT INFORMATION

Flight Status: Arrived
Operator:
Global Sim Alliance
More flights by this operator :: More flights under this callsign
Pilot: Anonymous 8799 (8799)
Aircraft: BOEING 737-800
(B738)
More flights by this aircraft type
Origin: KAMA Amarillo Intl
United States
Destination: KDEN Denver Intl
United States
More flights between these airports :: More routes between these airports
Route: +PNH ZIGEE BOSSS2
File this flight plan on PilotEdge
Remarks:
Altitude:
(Current/Filed)
32,000ft
Speed:
(Current/Filed)
450kts
Departed: 28-Jul-17 08:10 AM
Arrived: 28-Jul-17 09:08 AM
Distance/Time
Traveled:
312nm/0:58
Distance/Time
To Go:
Arrived

Flight Plot

Page will automatically refresh every two minutes.

Flight plan parsing failed; only flown route is shown


Map Options




Map Legend


Flown Route
Filed Route
Departure Airport
Arrival Airport
Navaid (VOR, NDB)
Fix

Horizontal Profiles

Position Reports

Time Latitude Longitude Heading Altitude Ground
Speed
28-Jul-17 07:44 35.219364 -101.706137 155 3614ft 0kts
28-Jul-17 07:45 35.219364 -101.706137 155 3614ft 0kts
28-Jul-17 07:46 35.219364 -101.706137 155 3614ft 0kts
28-Jul-17 07:47 35.219364 -101.706137 155 3614ft 0kts
28-Jul-17 07:48 35.219364 -101.706137 155 3614ft 0kts
28-Jul-17 07:49 35.219364 -101.706137 155 3614ft 0kts
28-Jul-17 07:50 35.219364 -101.706137 155 3614ft 0kts
28-Jul-17 07:51 35.219364 -101.706137 155 3614ft 0kts
28-Jul-17 07:52 35.219364 -101.706137 155 3614ft 0kts
28-Jul-17 07:53 35.219364 -101.706137 155 3614ft 0kts
28-Jul-17 07:54 35.219364 -101.706137 155 3614ft 0kts
28-Jul-17 07:55 35.219364 -101.706137 155 3614ft 0kts
28-Jul-17 07:56 35.219364 -101.706137 155 3614ft 0kts
28-Jul-17 07:57 35.219364 -101.706138 155 3614ft 0kts
28-Jul-17 07:58 35.219663 -101.706306 144 3614ft 2kts
28-Jul-17 07:59 35.219703 -101.706908 47 3614ft 0kts
28-Jul-17 08:00 35.219703 -101.706908 47 3614ft 0kts
28-Jul-17 08:01 35.219703 -101.706908 47 3614ft 0kts
28-Jul-17 08:02 35.219703 -101.706908 47 3614ft 0kts
28-Jul-17 08:03 35.219703 -101.706908 47 3614ft 0kts
28-Jul-17 08:04 35.219703 -101.706908 47 3614ft 0kts
28-Jul-17 08:05 35.219703 -101.706908 47 3614ft 0kts
28-Jul-17 08:06 35.220589 -101.707268 327 3614ft 1kts
28-Jul-17 08:07 35.224056 -101.703528 44 3614ft 27kts
28-Jul-17 08:08 35.228868 -101.698339 341 3614ft 12kts
28-Jul-17 08:09 35.229683 -101.699233 314 3614ft 0kts
28-Jul-17 08:10 35.229721 -101.699280 313 3614ft 0kts
28-Jul-17 08:11 35.229758 -101.699328 313 3614ft 0kts
28-Jul-17 08:12 35.230281 -101.700008 303 3614ft 12kts
28-Jul-17 08:13 35.214666 -101.722029 227 4120ft 177kts
28-Jul-17 08:14 35.174996 -101.781257 225 5966ft 307kts
28-Jul-17 08:15 35.158726 -101.855487 302 7636ft 247kts
28-Jul-17 08:16 35.226958 -101.899845 336 9816ft 295kts
28-Jul-17 08:17 35.302426 -101.936322 336 11800ft 296kts
28-Jul-17 08:18 35.379568 -101.973990 339 13655ft 323kts
28-Jul-17 08:19 35.460617 -101.966518 7 16394ft 362kts
28-Jul-17 08:20 35.560390 -101.946402 8 20138ft 378kts
28-Jul-17 08:21 35.665178 -101.925953 4 23362ft 395kts
28-Jul-17 08:22 35.773838 -101.950944 342 26186ft 414kts
28-Jul-17 08:23 35.878805 -101.997161 340 29221ft 414kts
28-Jul-17 08:24 35.984858 -102.046460 339 31938ft 410kts
28-Jul-17 08:25 36.093109 -102.097170 339 32214ft 436kts
28-Jul-17 08:26 36.206840 -102.150633 339 32217ft 463kts
28-Jul-17 08:27 36.326384 -102.206993 339 32205ft 466kts
28-Jul-17 08:28 36.446167 -102.263696 339 32210ft 466kts
28-Jul-17 08:29 36.566441 -102.320797 339 32147ft 466kts
28-Jul-17 08:30 36.686009 -102.377753 339 32093ft 466kts
28-Jul-17 08:31 36.806163 -102.435179 339 32011ft 467kts
28-Jul-17 08:32 36.926323 -102.492803 339 32006ft 467kts
28-Jul-17 08:33 37.046396 -102.550484 338 32065ft 469kts
28-Jul-17 08:34 37.163115 -102.606862 337 32112ft 458kts
28-Jul-17 08:35 37.279121 -102.663113 336 32127ft 459kts
28-Jul-17 08:36 37.396878 -102.720349 336 32163ft 459kts
28-Jul-17 08:37 37.515016 -102.777162 341 32143ft 460kts
28-Jul-17 08:38 37.637370 -102.816971 343 32165ft 461kts
28-Jul-17 08:39 37.760655 -102.855791 343 32165ft 461kts
28-Jul-17 08:40 37.883663 -102.894573 343 32165ft 461kts
28-Jul-17 08:41 38.007270 -102.933675 343 32165ft 461kts
28-Jul-17 08:42 38.127904 -102.971968 343 32165ft 461kts
28-Jul-17 08:43 38.251136 -103.011221 343 32167ft 462kts
28-Jul-17 08:44 38.374668 -103.050707 343 32170ft 463kts
28-Jul-17 08:45 38.498484 -103.090481 342 32170ft 464kts
28-Jul-17 08:46 38.597864 -103.187568 312 32191ft 458kts
28-Jul-17 08:47 38.684267 -103.306036 310 32234ft 458kts
28-Jul-17 08:48 38.767379 -103.422421 310 31432ft 428kts
28-Jul-17 08:49 38.843760 -103.529989 310 29378ft 397kts
28-Jul-17 08:50 38.918432 -103.635708 310 27479ft 402kts
28-Jul-17 08:51 38.991778 -103.739918 310 25603ft 393kts
28-Jul-17 08:52 39.062597 -103.840901 310 23791ft 378kts
28-Jul-17 08:53 39.129430 -103.936454 311 22086ft 370kts
28-Jul-17 08:54 39.196647 -104.032773 311 20395ft 357kts
28-Jul-17 08:55 39.255514 -104.120454 297 18823ft 314kts
28-Jul-17 08:56 39.279746 -104.208631 290 17581ft 314kts
28-Jul-17 08:57 39.306598 -104.309743 290 15907ft 279kts
28-Jul-17 08:58 39.326538 -104.400562 282 14245ft 255kts
28-Jul-17 08:59 39.338891 -104.485678 285 12718ft 253kts
28-Jul-17 09:00 39.359309 -104.570005 290 12305ft 251kts
28-Jul-17 09:01 39.399139 -104.632957 351 11385ft 243kts
28-Jul-17 09:02 39.460540 -104.653645 340 11176ft 243kts
28-Jul-17 09:03 39.488673 -104.721308 322 10993ft 248kts
28-Jul-17 09:04 39.549576 -104.707870 20 9106ft 230kts
28-Jul-17 09:05 39.604902 -104.678532 20 8452ft 196kts
28-Jul-17 09:06 39.658095 -104.663184 0 8476ft 200kts
28-Jul-17 09:07 39.713136 -104.662036 359 7721ft 189kts
28-Jul-17 09:08 39.763153 -104.661436 358 6761ft 177kts
28-Jul-17 09:09 39.805797 -104.660869 358 5908ft 140kts
28-Jul-17 09:10 39.839118 -104.660314 359 5442ft 47kts
28-Jul-17 09:11 39.840413 -104.661660 217 5442ft 2kts
28-Jul-17 09:12 39.840403 -104.661670 217 5442ft 0kts
28-Jul-17 09:13 39.840582 -104.662312 340 5442ft 8kts
28-Jul-17 09:14 39.844452 -104.662341 1 5442ft 19kts
28-Jul-17 09:15 39.849917 -104.662311 5 5442ft 15kts
28-Jul-17 09:16 39.852069 -104.663804 272 5442ft 8kts
28-Jul-17 09:17 39.852570 -104.668521 287 5442ft 16kts
28-Jul-17 09:18 39.853417 -104.669496 0 5442ft 0kts
28-Jul-17 09:19 39.853417 -104.669496 0 5442ft 0kts

Navigation Log

Ident Type
Flight plan parsing failed, navigation log unavailable